WetterOnline ( https://www.wetteronline.de )

Wetter aktuell Brunsbek

Aktuelles Wetter: Quickborn (17m)

6-stündlich | Neueste Meldungen
Ortszeit Temperatur Wetter
Fr, 03.02. 7:00 7.2° C Regen
Fr, 03.02. 1:00 4.9° C leichter Regen
Do, 02.02. 19:00 2.1° C bedeckt
Do, 02.02. 13:00 6.7° C wolkig
Do, 02.02. 7:00 5.1° C bewölkt
Do, 02.02. 1:00 5.7° C bewölkt
Mi, 01.02. 19:00 5.7° C bedeckt
Mi, 01.02. 13:00 6.4° C bedeckt
Ortszeit Temperatur Wetter
Fr, 03.02. 7:00 7.2° C Regen
Fr, 03.02. 6:40 7.3° C leichter Regen
Fr, 03.02. 6:30 7.3° C leichter Regen
Fr, 03.02. 6:20 7.3° C leichter Regen
Fr, 03.02. 6:10 7.3° C leichter Regen
Fr, 03.02. 6:00 7.3° C leichter Regen
Fr, 03.02. 5:50 7.3° C leichter Regen
Fr, 03.02. 5:30 7.2° C Sprühregen
Fr, 03.02. 5:00 7.6° C bewölkt
Fr, 03.02. 4:30 7.9° C bewölkt
Fr, 03.02. 4:00 7.6° C Sprühregen
Ortszeit Relative Feuchte Sichtweite
Fr, 03.02. 7:00 96% 2.9 km
Fr, 03.02. 1:00 98% 2.8 km
Do, 02.02. 19:00 94% 30 km
Do, 02.02. 13:00 75% 40 km
Do, 02.02. 7:00 86% 23 km
Do, 02.02. 1:00 82% 22 km
Mi, 01.02. 19:00 77% 17 km
Mi, 01.02. 13:00 79% 25 km
Ortszeit Relative Feuchte Sichtweite
Fr, 03.02. 7:00 96% 2.9 km
Fr, 03.02. 6:40 96% -
Fr, 03.02. 6:30 95% 3.0 km
Fr, 03.02. 6:20 95% -
Fr, 03.02. 6:10 94% -
Fr, 03.02. 6:00 95% 3.7 km
Fr, 03.02. 5:50 95% -
Fr, 03.02. 5:30 93% 4.7 km
Fr, 03.02. 5:00 90% 29 km
Fr, 03.02. 4:30 86% 35 km
Fr, 03.02. 4:00 90% 19 km
Ortszeit Niederschlagsmenge Niederschlagsart
Fr, 03.02. 7:00 8 l/m2 in 12 Std. Regen
Fr, 03.02. 1:00 6 l/m2 in 6 Std. Regen
Do, 02.02. 19:00 0.1 l/m2 in 12 Std. Regen
Do, 02.02. 13:00 0.1 l/m2 in 6 Std. Regen
Do, 02.02. 7:00 5 l/m2 in 12 Std. Regen
Do, 02.02. 1:00 2 l/m2 in 6 Std. Regen
Mi, 01.02. 19:00 4 l/m2 in 12 Std. Regen
Mi, 01.02. 13:00 0.7 l/m2 in 6 Std. Regen
Ortszeit Niederschlagsmenge Niederschlagsart
Fr, 03.02. 7:00 1.0 l/m2 in 1 Std. Regen
Fr, 03.02. 6:40 keine Meldung -
Fr, 03.02. 6:30 0.2 l/m2 in 30 Min -
Fr, 03.02. 6:20 keine Meldung -
Fr, 03.02. 6:10 keine Meldung -
Fr, 03.02. 6:00 0.2 l/m2 in 1 Std. Regen
Fr, 03.02. 5:50 keine Meldung -
Fr, 03.02. 5:30 <0.05 l/m2 in 30 Min -
Fr, 03.02. 5:00 <0.05 l/m2 in 1 Std. Regen
Fr, 03.02. 4:30 <0.05 l/m2 in 30 Min Schneeregen
Fr, 03.02. 4:00 0.1 l/m2 in 1 Std. Regen
Ortszeit Stärke Spitze Richtung
km/h Bft. km/h Grad Sektor
Fr, 03.02. 7:00 31 5 54 260° W
Fr, 03.02. 1:00 13 3 33 200° S
Do, 02.02. 19:00 6 1 30 170° S
Do, 02.02. 13:00 11 2 35 330° NW
Do, 02.02. 7:00 22 4 50 290° W
Do, 02.02. 1:00 33 5 67 290° W
Mi, 01.02. 19:00 22 4 63 270° W
Mi, 01.02. 13:00 31 5 54 270° W
Ortszeit Stärke Spitze Richtung
km/h Bft. km/h Grad Sektor
Fr, 03.02. 7:00 31 5 52 260° W
Fr, 03.02. 6:40 28 4 - 260° W
Fr, 03.02. 6:30 25 4 50 260° W
Fr, 03.02. 6:20 25 4 - 260° W
Fr, 03.02. 6:10 31 5 - 260° W
Fr, 03.02. 6:00 30 5 54 260° W
Fr, 03.02. 5:50 30 5 - 260° W
Fr, 03.02. 5:30 30 5 54 260° W
Fr, 03.02. 5:00 30 5 50 260° W
Fr, 03.02. 4:30 28 4 50 270° W
Fr, 03.02. 4:00 22 4 39 260° W
Ortszeit Untergrenze Bedeckung Gattung
total tief tief mittel hoch
Fr, 03.02. 7:00 210 m 8/8 8/8 - - -
Fr, 03.02. 1:00 120 m 7/8 7/8 - - -
Do, 02.02. 19:00 3000 m 8/8 8/8 - - -
Do, 02.02. 13:00 720 m 6/8 6/8 - - -
Do, 02.02. 7:00 30 m 7/8 7/8 - - -
Do, 02.02. 1:00 60 m 7/8 7/8 - - -
Mi, 01.02. 19:00 60 m 8/8 8/8 - - -
Mi, 01.02. 13:00 630 m 8/8 8/8 - - -
Ortszeit Bedeckungsgrad in Achtel und Wolkenuntergrenze
Fr, 03.02. 7:00 6(210m) 8(330m)
Fr, 03.02. 6:40 7
Fr, 03.02. 6:30 7(240m)
Fr, 03.02. 6:20 7(240m)
Fr, 03.02. 6:10 8
Fr, 03.02. 6:00 7(240m) 8(330m)
Fr, 03.02. 5:50 7(240m) 8(330m)
Fr, 03.02. 5:30 7(240m) 8(360m)
Fr, 03.02. 5:00 1(60m) 7(420m)
Fr, 03.02. 4:30 1(60m) 7(510m)
Fr, 03.02. 4:00 7(510m)
Ortszeit Luftdruck NN (hPa) Tendenz (hPa in 3 Std.)
Fr, 03.02. 7:00 1013 - 2,1
Fr, 03.02. 1:00 1017 - 3,1
Do, 02.02. 19:00 1022 + 1,1
Do, 02.02. 13:00 1019 + 2,1
Do, 02.02. 7:00 1015 + 2,2
Do, 02.02. 1:00 1010 + 1,8
Mi, 01.02. 19:00 1008 + 1,1
Mi, 01.02. 13:00 1007 - 1,5
Ortszeit Luftdruck NN (hPa) Tendenz (hPa in 3 Std.)
Fr, 03.02. 7:00 1013 - 2,1
Fr, 03.02. 6:40 1013 keine Meldung
Fr, 03.02. 6:30 1013 - 2,1
Fr, 03.02. 6:20 1013 keine Meldung
Fr, 03.02. 6:10 1013 keine Meldung
Fr, 03.02. 6:00 1013 - 1,8
Fr, 03.02. 5:50 1013 keine Meldung
Fr, 03.02. 5:30 1013 - 2,3
Fr, 03.02. 5:00 1014 - 2,4
Fr, 03.02. 4:30 1014 - 2,4
Fr, 03.02. 4:00 1015 - 2,3
Ortszeit Schneehöhe (cm)
Fr, 03.02. 7:00 0
Fr, 03.02. 1:00 0
Do, 02.02. 19:00 0
Do, 02.02. 13:00 0
Do, 02.02. 7:00 0
Do, 02.02. 1:00 0
Mi, 01.02. 19:00 0
Mi, 01.02. 13:00 0
Ortszeit Schneehöhe (cm)
Fr, 03.02. 7:00 0
Fr, 03.02. 6:40 0
Fr, 03.02. 6:30 0
Fr, 03.02. 6:20 0
Fr, 03.02. 6:10 0
Fr, 03.02. 6:00 0
Fr, 03.02. 5:50 0
Fr, 03.02. 5:30 0
Fr, 03.02. 5:00 0
Fr, 03.02. 4:30 0
Fr, 03.02. 4:00 0
Link zu dieser Seite / Seite empfehlen

Das Wetter in ...